sensor_id;sensor_type;location;lat;lon;timestamp;pressure;altitude;pressure_sealevel;temperature;humidity
50166;BME280;36071;48.140;11.516;2024-03-08T00:02:21;95380.0;;;2.2;81.6
50166;BME280;36071;48.140;11.516;2024-03-08T00:07:20;95390.0;;;2.2;82.6
50166;BME280;36071;48.140;11.516;2024-03-08T00:12:21;95380.0;;;2.1;81.6
50166;BME280;36071;48.140;11.516;2024-03-08T00:17:21;95380.0;;;2.0;81.9
50166;BME280;36071;48.140;11.516;2024-03-08T00:22:21;95380.0;;;1.9;81.5
50166;BME280;36071;48.140;11.516;2024-03-08T00:27:20;95380.0;;;1.8;82.5
50166;BME280;36071;48.140;11.516;2024-03-08T00:32:25;95370.0;;;1.8;81.9
50166;BME280;36071;48.140;11.516;2024-03-08T00:37:21;95360.0;;;1.7;84.0
50166;BME280;36071;48.140;11.516;2024-03-08T00:42:20;95350.0;;;1.7;82.9
50166;BME280;36071;48.140;11.516;2024-03-08T00:47:21;95350.0;;;1.8;83.9
50166;BME280;36071;48.140;11.516;2024-03-08T00:52:21;95340.0;;;1.8;84.0
50166;BME280;36071;48.140;11.516;2024-03-08T00:57:21;95340.0;;;1.8;83.1
50166;BME280;36071;48.140;11.516;2024-03-08T01:02:21;95340.0;;;1.6;82.5
50166;BME280;36071;48.140;11.516;2024-03-08T01:07:21;95340.0;;;1.8;84.7
50166;BME280;36071;48.140;11.516;2024-03-08T01:12:20;95330.0;;;1.6;82.9
50166;BME280;36071;48.140;11.516;2024-03-08T01:17:21;95330.0;;;1.6;84.0
50166;BME280;36071;48.140;11.516;2024-03-08T01:22:20;95320.0;;;1.6;84.0
50166;BME280;36071;48.140;11.516;2024-03-08T01:27:21;95320.0;;;1.4;85.9
50166;BME280;36071;48.140;11.516;2024-03-08T01:32:21;95300.0;;;1.3;85.1
50166;BME280;36071;48.140;11.516;2024-03-08T01:37:20;95290.0;;;1.4;85.7
50166;BME280;36071;48.140;11.516;2024-03-08T01:42:21;95290.0;;;1.3;86.9
50166;BME280;36071;48.140;11.516;2024-03-08T01:47:22;95290.0;;;1.3;86.1
50166;BME280;36071;48.140;11.516;2024-03-08T01:52:21;95280.0;;;1.2;86.3
50166;BME280;36071;48.140;11.516;2024-03-08T01:57:21;95280.0;;;1.3;86.5
50166;BME280;36071;48.140;11.516;2024-03-08T02:02:21;95270.0;;;1.1;87.6
50166;BME280;36071;48.140;11.516;2024-03-08T02:07:20;95260.0;;;1.1;88.3
50166;BME280;36071;48.140;11.516;2024-03-08T02:12:21;95260.0;;;1.1;89.2
50166;BME280;36071;48.140;11.516;2024-03-08T02:17:20;95260.0;;;1.0;88.6
50166;BME280;36071;48.140;11.516;2024-03-08T02:22:21;95250.0;;;1.0;88.7
50166;BME280;36071;48.140;11.516;2024-03-08T02:27:23;95250.0;;;1.1;89.7
50166;BME280;36071;48.140;11.516;2024-03-08T02:32:21;95250.0;;;0.8;89.6
50166;BME280;36071;48.140;11.516;2024-03-08T02:37:21;95240.0;;;0.9;89.7
50166;BME280;36071;48.140;11.516;2024-03-08T02:42:20;95240.0;;;0.8;90.5
50166;BME280;36071;48.140;11.516;2024-03-08T02:47:21;95250.0;;;0.7;90.8
50166;BME280;36071;48.140;11.516;2024-03-08T02:52:32;95240.0;;;0.8;91.0
50166;BME280;36071;48.140;11.516;2024-03-08T02:57:32;95230.0;;;0.8;90.6
50166;BME280;36071;48.140;11.516;2024-03-08T03:02:32;95230.0;;;0.7;91.7
50166;BME280;36071;48.140;11.516;2024-03-08T03:07:32;95220.0;;;0.6;92.1
50166;BME280;36071;48.140;11.516;2024-03-08T03:12:32;95230.0;;;0.6;93.6
50166;BME280;36071;48.140;11.516;2024-03-08T03:17:32;95210.0;;;0.6;93.7
50166;BME280;36071;48.140;11.516;2024-03-08T03:22:32;95210.0;;;0.6;93.2
50166;BME280;36071;48.140;11.516;2024-03-08T03:27:32;95210.0;;;0.6;94.7
50166;BME280;36071;48.140;11.516;2024-03-08T03:32:32;95210.0;;;0.6;93.2
50166;BME280;36071;48.140;11.516;2024-03-08T03:37:32;95210.0;;;0.5;94.2
50166;BME280;36071;48.140;11.516;2024-03-08T03:42:32;95200.0;;;0.4;94.2
50166;BME280;36071;48.140;11.516;2024-03-08T03:47:33;95210.0;;;0.5;94.2
50166;BME280;36071;48.140;11.516;2024-03-08T03:52:32;95200.0;;;0.5;94.2
50166;BME280;36071;48.140;11.516;2024-03-08T03:57:32;95200.0;;;0.5;95.6
50166;BME280;36071;48.140;11.516;2024-03-08T04:02:32;95200.0;;;0.6;94.7
50166;BME280;36071;48.140;11.516;2024-03-08T04:07:32;95200.0;;;0.6;94.5
50166;BME280;36071;48.140;11.516;2024-03-08T04:12:32;95200.0;;;0.6;93.6
50166;BME280;36071;48.140;11.516;2024-03-08T04:17:32;95200.0;;;0.6;94.3
50166;BME280;36071;48.140;11.516;2024-03-08T04:22:32;95190.0;;;0.6;93.7
50166;BME280;36071;48.140;11.516;2024-03-08T04:27:32;95190.0;;;0.4;94.9
50166;BME280;36071;48.140;11.516;2024-03-08T04:32:32;95190.0;;;0.3;96.9
50166;BME280;36071;48.140;11.516;2024-03-08T04:37:32;95190.0;;;0.4;96.2
50166;BME280;36071;48.140;11.516;2024-03-08T04:42:32;95190.0;;;0.2;96.1
50166;BME280;36071;48.140;11.516;2024-03-08T04:47:32;95190.0;;;0.3;97.4
50166;BME280;36071;48.140;11.516;2024-03-08T04:52:32;95190.0;;;0.3;96.4
50166;BME280;36071;48.140;11.516;2024-03-08T04:57:32;95180.0;;;0.2;97.4
50166;BME280;36071;48.140;11.516;2024-03-08T05:02:32;95180.0;;;0.2;97.5
50166;BME280;36071;48.140;11.516;2024-03-08T05:07:32;95180.0;;;0.1;97.3
50166;BME280;36071;48.140;11.516;2024-03-08T05:12:32;95180.0;;;0.1;97.8
50166;BME280;36071;48.140;11.516;2024-03-08T05:17:32;95180.0;;;0.0;97.6
50166;BME280;36071;48.140;11.516;2024-03-08T05:22:32;95180.0;;;0.1;99.8
50166;BME280;36071;48.140;11.516;2024-03-08T05:27:32;95170.0;;;0.1;98.8
50166;BME280;36071;48.140;11.516;2024-03-08T05:32:32;95170.0;;;-0.1;98.2
50166;BME280;36071;48.140;11.516;2024-03-08T05:37:32;95170.0;;;0.0;99.2
50166;BME280;36071;48.140;11.516;2024-03-08T05:42:32;95170.0;;;-0.1;99.4
50166;BME280;36071;48.140;11.516;2024-03-08T05:47:32;95170.0;;;-0.1;99.6
50166;BME280;36071;48.140;11.516;2024-03-08T05:52:32;95170.0;;;-0.1;100.0
50166;BME280;36071;48.140;11.516;2024-03-08T05:57:32;95160.0;;;0.0;100.0
50166;BME280;36071;48.140;11.516;2024-03-08T06:02:32;95170.0;;;0.1;100.0
50166;BME280;36071;48.140;11.516;2024-03-08T06:07:32;95160.0;;;0.1;99.7
50166;BME280;36071;48.140;11.516;2024-03-08T06:12:32;95160.0;;;0.2;98.7
50166;BME280;36071;48.140;11.516;2024-03-08T06:17:32;95160.0;;;0.1;97.2
50166;BME280;36071;48.140;11.516;2024-03-08T06:22:32;95160.0;;;0.1;97.3
50166;BME280;36071;48.140;11.516;2024-03-08T06:27:32;95150.0;;;0.1;99.0
50166;BME280;36071;48.140;11.516;2024-03-08T06:32:32;95160.0;;;0.1;98.9
50166;BME280;36071;48.140;11.516;2024-03-08T06:37:32;95160.0;;;0.1;98.5
50166;BME280;36071;48.140;11.516;2024-03-08T06:42:32;95160.0;;;0.1;96.8
50166;BME280;36071;48.140;11.516;2024-03-08T06:47:32;95170.0;;;0.1;96.7
50166;BME280;36071;48.140;11.516;2024-03-08T06:52:32;95160.0;;;0.1;97.3
50166;BME280;36071;48.140;11.516;2024-03-08T06:57:32;95170.0;;;0.1;97.0
50166;BME280;36071;48.140;11.516;2024-03-08T07:02:32;95180.0;;;0.3;96.9
50166;BME280;36071;48.140;11.516;2024-03-08T07:07:32;95160.0;;;0.4;96.8
50166;BME280;36071;48.140;11.516;2024-03-08T07:12:32;95150.0;;;0.5;96.3
50166;BME280;36071;48.140;11.516;2024-03-08T07:17:32;95170.0;;;0.6;94.8
50166;BME280;36071;48.140;11.516;2024-03-08T07:22:32;95160.0;;;0.6;95.4
50166;BME280;36071;48.140;11.516;2024-03-08T07:27:32;95160.0;;;0.5;94.5
50166;BME280;36071;48.140;11.516;2024-03-08T07:32:32;95150.0;;;0.6;93.9
50166;BME280;36071;48.140;11.516;2024-03-08T07:37:32;95150.0;;;0.7;94.6
50166;BME280;36071;48.140;11.516;2024-03-08T07:42:32;95140.0;;;0.6;94.0
50166;BME280;36071;48.140;11.516;2024-03-08T07:47:32;95150.0;;;0.9;93.9
50166;BME280;36071;48.140;11.516;2024-03-08T07:52:32;95140.0;;;1.0;93.4
50166;BME280;36071;48.140;11.516;2024-03-08T07:57:32;95140.0;;;0.9;93.3
50166;BME280;36071;48.140;11.516;2024-03-08T08:02:32;95140.0;;;1.0;92.0
50166;BME280;36071;48.140;11.516;2024-03-08T08:07:32;95130.0;;;1.2;89.6
50166;BME280;36071;48.140;11.516;2024-03-08T08:12:32;95120.0;;;1.6;88.8
50166;BME280;36071;48.140;11.516;2024-03-08T08:17:32;95120.0;;;2.0;84.3
50166;BME280;36071;48.140;11.516;2024-03-08T08:22:32;95120.0;;;2.7;80.1
50166;BME280;36071;48.140;11.516;2024-03-08T08:27:32;95120.0;;;2.9;81.1
50166;BME280;36071;48.140;11.516;2024-03-08T08:32:32;95120.0;;;2.6;80.8
50166;BME280;36071;48.140;11.516;2024-03-08T08:37:32;95110.0;;;3.0;79.9
50166;BME280;36071;48.140;11.516;2024-03-08T08:42:32;95100.0;;;3.2;78.8
50166;BME280;36071;48.140;11.516;2024-03-08T08:47:32;95100.0;;;3.8;75.6
50166;BME280;36071;48.140;11.516;2024-03-08T08:52:32;95090.0;;;4.3;72.6
50166;BME280;36071;48.140;11.516;2024-03-08T08:57:32;95080.0;;;4.9;69.8
50166;BME280;36071;48.140;11.516;2024-03-08T09:02:32;95090.0;;;5.8;67.9
50166;BME280;36071;48.140;11.516;2024-03-08T09:07:32;95080.0;;;6.5;65.8
50166;BME280;36071;48.140;11.516;2024-03-08T09:12:32;95070.0;;;6.8;61.3
50166;BME280;36071;48.140;11.516;2024-03-08T09:17:34;95060.0;;;6.7;60.7
50166;BME280;36071;48.140;11.516;2024-03-08T09:22:32;95050.0;;;6.8;60.9
50166;BME280;36071;48.140;11.516;2024-03-08T09:27:32;95050.0;;;7.5;59.8
50166;BME280;36071;48.140;11.516;2024-03-08T09:32:32;95050.0;;;8.0;58.5
50166;BME280;36071;48.140;11.516;2024-03-08T09:37:32;95040.0;;;8.1;56.3
50166;BME280;36071;48.140;11.516;2024-03-08T09:42:32;95040.0;;;8.4;55.6
50166;BME280;36071;48.140;11.516;2024-03-08T09:47:32;95030.0;;;8.3;55.3
50166;BME280;36071;48.140;11.516;2024-03-08T09:52:32;95030.0;;;9.1;54.7
50166;BME280;36071;48.140;11.516;2024-03-08T09:57:32;95020.0;;;9.0;52.2
50166;BME280;36071;48.140;11.516;2024-03-08T10:02:32;95020.0;;;9.6;54.1
50166;BME280;36071;48.140;11.516;2024-03-08T10:07:32;95020.0;;;10.0;52.4
50166;BME280;36071;48.140;11.516;2024-03-08T10:12:32;95020.0;;;10.5;51.2
50166;BME280;36071;48.140;11.516;2024-03-08T10:17:32;95010.0;;;10.7;49.6
50166;BME280;36071;48.140;11.516;2024-03-08T10:22:32;95010.0;;;10.1;49.2
50166;BME280;36071;48.140;11.516;2024-03-08T10:27:32;95000.0;;;10.8;49.9
50166;BME280;36071;48.140;11.516;2024-03-08T10:32:32;94990.0;;;11.2;49.6
50166;BME280;36071;48.140;11.516;2024-03-08T10:37:32;94990.0;;;11.3;46.9
50166;BME280;36071;48.140;11.516;2024-03-08T10:42:35;94990.0;;;11.0;46.6
50166;BME280;36071;48.140;11.516;2024-03-08T10:47:32;94980.0;;;11.6;47.8
50166;BME280;36071;48.140;11.516;2024-03-08T10:52:32;94980.0;;;11.6;46.5
50166;BME280;36071;48.140;11.516;2024-03-08T10:57:32;94970.0;;;12.3;46.9
50166;BME280;36071;48.140;11.516;2024-03-08T11:02:32;94970.0;;;12.7;43.9
50166;BME280;36071;48.140;11.516;2024-03-08T11:07:33;94950.0;;;13.2;44.5
50166;BME280;36071;48.140;11.516;2024-03-08T11:12:35;94950.0;;;13.5;43.1
50166;BME280;36071;48.140;11.516;2024-03-08T11:17:40;94940.0;;;14.0;43.9
50166;BME280;36071;48.140;11.516;2024-03-08T11:22:36;94930.0;;;14.3;42.7
50166;BME280;36071;48.140;11.516;2024-03-08T11:27:32;94930.0;;;14.6;41.7
50166;BME280;36071;48.140;11.516;2024-03-08T11:32:32;94920.0;;;15.1;42.4
50166;BME280;36071;48.140;11.516;2024-03-08T11:37:33;94910.0;;;15.1;41.3
50166;BME280;36071;48.140;11.516;2024-03-08T11:42:32;94920.0;;;15.4;40.5
50166;BME280;36071;48.140;11.516;2024-03-08T11:47:35;94920.0;;;15.3;39.6
50166;BME280;36071;48.140;11.516;2024-03-08T11:52:32;94910.0;;;15.3;39.6
50166;BME280;36071;48.140;11.516;2024-03-08T11:57:32;94910.0;;;14.7;38.4
50166;BME280;36071;48.140;11.516;2024-03-08T12:02:32;94890.0;;;15.1;41.1
50166;BME280;36071;48.140;11.516;2024-03-08T12:07:32;94890.0;;;14.8;39.1
50166;BME280;36071;48.140;11.516;2024-03-08T12:12:32;94880.0;;;14.9;40.0
50166;BME280;36071;48.140;11.516;2024-03-08T12:17:33;94880.0;;;14.3;39.1
50166;BME280;36071;48.140;11.516;2024-03-08T12:22:32;94870.0;;;14.7;40.9
50166;BME280;36071;48.140;11.516;2024-03-08T12:27:32;94860.0;;;15.1;39.6
50166;BME280;36071;48.140;11.516;2024-03-08T12:32:32;94840.0;;;14.6;39.0
50166;BME280;36071;48.140;11.516;2024-03-08T12:37:32;94850.0;;;15.3;40.6
50166;BME280;36071;48.140;11.516;2024-03-08T12:42:32;94830.0;;;15.7;40.1
50166;BME280;36071;48.140;11.516;2024-03-08T12:47:33;94820.0;;;15.7;38.6
50166;BME280;36071;48.140;11.516;2024-03-08T12:52:32;94820.0;;;15.8;38.9
50166;BME280;36071;48.140;11.516;2024-03-08T12:57:32;94820.0;;;15.9;40.0
50166;BME280;36071;48.140;11.516;2024-03-08T13:02:32;94810.0;;;15.9;38.4
50166;BME280;36071;48.140;11.516;2024-03-08T13:07:32;94810.0;;;16.0;37.9
50166;BME280;36071;48.140;11.516;2024-03-08T13:12:32;94810.0;;;16.2;38.6
50166;BME280;36071;48.140;11.516;2024-03-08T13:17:32;94800.0;;;16.3;38.2
50166;BME280;36071;48.140;11.516;2024-03-08T13:22:32;94800.0;;;16.1;37.9
50166;BME280;36071;48.140;11.516;2024-03-08T13:27:32;94790.0;;;16.3;37.2
50166;BME280;36071;48.140;11.516;2024-03-08T13:32:32;94790.0;;;16.5;38.0
50166;BME280;36071;48.140;11.516;2024-03-08T13:37:32;94770.0;;;16.4;37.3
50166;BME280;36071;48.140;11.516;2024-03-08T13:42:32;94780.0;;;16.4;36.2
50166;BME280;36071;48.140;11.516;2024-03-08T13:47:32;94770.0;;;16.4;36.5
50166;BME280;36071;48.140;11.516;2024-03-08T13:52:32;94760.0;;;16.4;37.5
50166;BME280;36071;48.140;11.516;2024-03-08T13:57:32;94760.0;;;16.3;36.9
50166;BME280;36071;48.140;11.516;2024-03-08T14:02:32;94750.0;;;16.1;36.8
50166;BME280;36071;48.140;11.516;2024-03-08T14:07:32;94740.0;;;16.0;36.2
50166;BME280;36071;48.140;11.516;2024-03-08T14:12:32;94740.0;;;15.6;36.1
50166;BME280;36071;48.140;11.516;2024-03-08T14:17:32;94740.0;;;15.6;36.7
50166;BME280;36071;48.140;11.516;2024-03-08T14:22:32;94730.0;;;15.7;36.5
50166;BME280;36071;48.140;11.516;2024-03-08T14:27:32;94720.0;;;15.8;36.6
50166;BME280;36071;48.140;11.516;2024-03-08T14:32:32;94720.0;;;15.6;36.7
50166;BME280;36071;48.140;11.516;2024-03-08T14:37:32;94720.0;;;15.6;36.1
50166;BME280;36071;48.140;11.516;2024-03-08T14:42:32;94710.0;;;14.8;37.2
50166;BME280;36071;48.140;11.516;2024-03-08T14:47:32;94700.0;;;15.3;37.4
50166;BME280;36071;48.140;11.516;2024-03-08T14:52:32;94700.0;;;15.4;37.5
50166;BME280;36071;48.140;11.516;2024-03-08T14:57:32;94700.0;;;15.4;36.9
50166;BME280;36071;48.140;11.516;2024-03-08T15:02:32;94690.0;;;15.4;37.0
50166;BME280;36071;48.140;11.516;2024-03-08T15:07:32;94680.0;;;15.3;36.5
50166;BME280;36071;48.140;11.516;2024-03-08T15:12:32;94680.0;;;14.7;36.9
50166;BME280;36071;48.140;11.516;2024-03-08T15:17:32;94680.0;;;14.3;38.5
50166;BME280;36071;48.140;11.516;2024-03-08T15:22:32;94680.0;;;14.3;38.9
50166;BME280;36071;48.140;11.516;2024-03-08T15:27:32;94680.0;;;13.9;39.0
50166;BME280;36071;48.140;11.516;2024-03-08T15:32:32;94670.0;;;14.1;39.6
50166;BME280;36071;48.140;11.516;2024-03-08T15:37:32;94660.0;;;13.6;38.9
50166;BME280;36071;48.140;11.516;2024-03-08T15:42:32;94670.0;;;13.4;40.1
50166;BME280;36071;48.140;11.516;2024-03-08T15:47:32;94660.0;;;13.2;40.5
50166;BME280;36071;48.140;11.516;2024-03-08T15:57:32;94670.0;;;13.2;40.6
50166;BME280;36071;48.140;11.516;2024-03-08T16:02:32;94670.0;;;13.1;40.0
50166;BME280;36071;48.140;11.516;2024-03-08T16:07:32;94660.0;;;13.1;40.9
50166;BME280;36071;48.140;11.516;2024-03-08T16:12:35;94660.0;;;12.4;40.0
50166;BME280;36071;48.140;11.516;2024-03-08T16:17:32;94660.0;;;12.3;42.2
50166;BME280;36071;48.140;11.516;2024-03-08T16:22:32;94660.0;;;12.0;42.0
50166;BME280;36071;48.140;11.516;2024-03-08T16:27:32;94650.0;;;12.0;43.4
50166;BME280;36071;48.140;11.516;2024-03-08T16:32:32;94640.0;;;11.6;43.0
50166;BME280;36071;48.140;11.516;2024-03-08T16:37:32;94640.0;;;11.8;44.0
50166;BME280;36071;48.140;11.516;2024-03-08T16:42:32;94650.0;;;11.3;45.3
50166;BME280;36071;48.140;11.516;2024-03-08T16:47:32;94630.0;;;11.1;44.5
50166;BME280;36071;48.140;11.516;2024-03-08T16:52:32;94630.0;;;11.3;45.5
50166;BME280;36071;48.140;11.516;2024-03-08T16:57:32;94630.0;;;11.2;45.9
50166;BME280;36071;48.140;11.516;2024-03-08T17:02:32;94610.0;;;11.1;46.1
50166;BME280;36071;48.140;11.516;2024-03-08T17:07:32;94610.0;;;11.1;47.0
50166;BME280;36071;48.140;11.516;2024-03-08T17:12:32;94610.0;;;11.1;48.5
50166;BME280;36071;48.140;11.516;2024-03-08T17:17:32;94610.0;;;11.0;48.1
50166;BME280;36071;48.140;11.516;2024-03-08T17:22:32;94610.0;;;11.0;47.2
50166;BME280;36071;48.140;11.516;2024-03-08T17:27:32;94600.0;;;10.8;48.4
50166;BME280;36071;48.140;11.516;2024-03-08T17:37:32;94600.0;;;10.6;49.3
50166;BME280;36071;48.140;11.516;2024-03-08T17:42:32;94600.0;;;10.4;50.3
50166;BME280;36071;48.140;11.516;2024-03-08T17:47:32;94600.0;;;10.2;50.5
50166;BME280;36071;48.140;11.516;2024-03-08T17:52:32;94590.0;;;10.1;51.4
50166;BME280;36071;48.140;11.516;2024-03-08T17:57:32;94580.0;;;10.1;51.8
50166;BME280;36071;48.140;11.516;2024-03-08T18:02:32;94590.0;;;10.0;52.2
50166;BME280;36071;48.140;11.516;2024-03-08T18:07:32;94590.0;;;9.8;53.1
50166;BME280;36071;48.140;11.516;2024-03-08T18:12:32;94580.0;;;9.7;53.4
50166;BME280;36071;48.140;11.516;2024-03-08T18:17:32;94580.0;;;9.6;53.8
50166;BME280;36071;48.140;11.516;2024-03-08T18:22:32;94570.0;;;9.4;54.6
50166;BME280;36071;48.140;11.516;2024-03-08T18:27:32;94570.0;;;9.4;55.5
50166;BME280;36071;48.140;11.516;2024-03-08T18:32:32;94550.0;;;9.4;55.6
50166;BME280;36071;48.140;11.516;2024-03-08T18:37:32;94550.0;;;9.1;55.9
50166;BME280;36071;48.140;11.516;2024-03-08T18:42:32;94540.0;;;9.0;56.5
50166;BME280;36071;48.140;11.516;2024-03-08T18:47:32;94540.0;;;8.9;56.1
50166;BME280;36071;48.140;11.516;2024-03-08T18:52:32;94530.0;;;8.9;57.3
50166;BME280;36071;48.140;11.516;2024-03-08T18:57:32;94540.0;;;8.9;57.8
50166;BME280;36071;48.140;11.516;2024-03-08T19:02:32;94530.0;;;8.6;58.2
50166;BME280;36071;48.140;11.516;2024-03-08T19:07:32;94530.0;;;8.6;57.6
50166;BME280;36071;48.140;11.516;2024-03-08T19:12:32;94520.0;;;8.4;58.4
50166;BME280;36071;48.140;11.516;2024-03-08T19:17:32;94510.0;;;8.2;58.2
50166;BME280;36071;48.140;11.516;2024-03-08T19:22:32;94510.0;;;8.2;58.8
50166;BME280;36071;48.140;11.516;2024-03-08T19:27:32;94510.0;;;8.1;60.2
50166;BME280;36071;48.140;11.516;2024-03-08T19:32:32;94500.0;;;7.9;59.5
50166;BME280;36071;48.140;11.516;2024-03-08T19:37:32;94500.0;;;7.8;61.4
50166;BME280;36071;48.140;11.516;2024-03-08T19:42:32;94510.0;;;7.5;61.7
50166;BME280;36071;48.140;11.516;2024-03-08T19:47:32;94500.0;;;7.5;61.0
50166;BME280;36071;48.140;11.516;2024-03-08T19:52:32;94500.0;;;7.6;62.1
50166;BME280;36071;48.140;11.516;2024-03-08T19:57:32;94490.0;;;7.6;62.0
50166;BME280;36071;48.140;11.516;2024-03-08T20:02:32;94500.0;;;7.5;61.2
50166;BME280;36071;48.140;11.516;2024-03-08T20:12:32;94500.0;;;7.5;62.0
50166;BME280;36071;48.140;11.516;2024-03-08T20:17:32;94500.0;;;7.5;61.6
50166;BME280;36071;48.140;11.516;2024-03-08T20:22:32;94500.0;;;7.4;61.5
50166;BME280;36071;48.140;11.516;2024-03-08T20:27:32;94490.0;;;7.4;61.9
50166;BME280;36071;48.140;11.516;2024-03-08T20:32:32;94490.0;;;7.2;61.5
50166;BME280;36071;48.140;11.516;2024-03-08T20:37:32;94490.0;;;7.2;61.7
50166;BME280;36071;48.140;11.516;2024-03-08T20:42:32;94490.0;;;7.0;63.3
50166;BME280;36071;48.140;11.516;2024-03-08T20:47:32;94490.0;;;7.0;63.0
50166;BME280;36071;48.140;11.516;2024-03-08T20:52:32;94490.0;;;7.0;62.8
50166;BME280;36071;48.140;11.516;2024-03-08T20:57:32;94480.0;;;6.9;62.5
50166;BME280;36071;48.140;11.516;2024-03-08T21:02:32;94470.0;;;6.9;63.4
50166;BME280;36071;48.140;11.516;2024-03-08T21:07:32;94460.0;;;6.9;62.9
50166;BME280;36071;48.140;11.516;2024-03-08T21:12:32;94470.0;;;6.8;63.7
50166;BME280;36071;48.140;11.516;2024-03-08T21:17:32;94460.0;;;6.7;62.9
50166;BME280;36071;48.140;11.516;2024-03-08T21:22:32;94460.0;;;6.8;63.6
50166;BME280;36071;48.140;11.516;2024-03-08T21:27:32;94460.0;;;6.7;64.8
50166;BME280;36071;48.140;11.516;2024-03-08T21:32:32;94450.0;;;6.5;63.9
50166;BME280;36071;48.140;11.516;2024-03-08T21:37:32;94450.0;;;6.4;64.6
50166;BME280;36071;48.140;11.516;2024-03-08T21:42:32;94430.0;;;6.4;65.0
50166;BME280;36071;48.140;11.516;2024-03-08T21:47:32;94430.0;;;6.2;65.0
50166;BME280;36071;48.140;11.516;2024-03-08T21:52:32;94440.0;;;6.0;65.5
50166;BME280;36071;48.140;11.516;2024-03-08T21:57:32;94440.0;;;6.0;66.1
50166;BME280;36071;48.140;11.516;2024-03-08T22:02:32;94450.0;;;5.9;66.3
50166;BME280;36071;48.140;11.516;2024-03-08T22:07:32;94430.0;;;5.9;68.2
50166;BME280;36071;48.140;11.516;2024-03-08T22:12:32;94430.0;;;6.0;67.4
50166;BME280;36071;48.140;11.516;2024-03-08T22:17:32;94420.0;;;5.6;66.3
50166;BME280;36071;48.140;11.516;2024-03-08T22:22:32;94420.0;;;5.6;67.5
50166;BME280;36071;48.140;11.516;2024-03-08T22:27:32;94410.0;;;5.6;67.2
50166;BME280;36071;48.140;11.516;2024-03-08T22:32:32;94400.0;;;5.4;67.9
50166;BME280;36071;48.140;11.516;2024-03-08T22:37:32;94400.0;;;5.3;67.9
50166;BME280;36071;48.140;11.516;2024-03-08T22:42:32;94410.0;;;5.2;68.9
50166;BME280;36071;48.140;11.516;2024-03-08T22:47:32;94410.0;;;5.2;68.6
50166;BME280;36071;48.140;11.516;2024-03-08T22:52:32;94400.0;;;5.0;69.3
50166;BME280;36071;48.140;11.516;2024-03-08T22:57:32;94410.0;;;4.9;69.4
50166;BME280;36071;48.140;11.516;2024-03-08T23:02:32;94410.0;;;4.9;70.9
50166;BME280;36071;48.140;11.516;2024-03-08T23:07:32;94400.0;;;4.8;70.4
50166;BME280;36071;48.140;11.516;2024-03-08T23:12:32;94400.0;;;5.0;71.4
50166;BME280;36071;48.140;11.516;2024-03-08T23:17:32;94410.0;;;4.8;70.6
50166;BME280;36071;48.140;11.516;2024-03-08T23:22:32;94410.0;;;4.9;71.1
50166;BME280;36071;48.140;11.516;2024-03-08T23:27:32;94410.0;;;4.8;69.9
50166;BME280;36071;48.140;11.516;2024-03-08T23:32:32;94410.0;;;4.9;70.6
50166;BME280;36071;48.140;11.516;2024-03-08T23:37:32;94410.0;;;4.7;70.4
50166;BME280;36071;48.140;11.516;2024-03-08T23:42:32;94410.0;;;4.6;70.5
50166;BME280;36071;48.140;11.516;2024-03-08T23:47:32;94410.0;;;4.5;70.4
50166;BME280;36071;48.140;11.516;2024-03-08T23:52:32;94420.0;;;4.5;71.0
50166;BME280;36071;48.140;11.516;2024-03-08T23:57:32;94410.0;;;4.5;70.9
